KPSK/PSK METAR and TAF weather

Enter ICAO airport designator
Station Type Date Time Source
KPSK METAR 2019/11/13 02:15 UTC NOAA

KPSK 130215Z AUTO 35010G16KT 10SM -SN OVC031 M05/M10 A3023 RMK AO2 T10551104


Station Type Date Time Source
KPSK Decoded METAR 2019/11/13 02:15 UTC NOAA

Dublin / New River Valley, VA, United States (KPSK) 37-08N 080-41W
Nov 12, 2019 - 09:15 PM EST / 2019.11.13 0215 UTC
Wind: from the N (350 degrees) at 12 MPH (10 KT) gusting to 18 MPH (16 KT):0
Visibility: 10 mile(s):0
Sky conditions: overcast
Weather: light snow
Temperature: 22.1 F (-5.5 C)
Windchill: 10 F (-12 C):1
Dew Point: 13.3 F (-10.4 C)
Relative Humidity: 68%
Pressure (altimeter): 30.23 in. Hg (1023 hPa)
ob: KPSK 130215Z AUTO 35010G16KT 10SM -SN OVC031 M05/M10 A3023 RMK AO2 T10551104
cycle: 2

Station Type Date Time Source
KPSK TAF UTC NOAA

Error!

Example: see airport list